sensor_id;sensor_type;location;lat;lon;timestamp;pressure;altitude;pressure_sealevel;temperature
69597;BMP180;70000;51.176;-115.568;2024-01-07T00:02:19;84914.80;;;-0.40
69597;BMP180;70000;51.176;-115.568;2024-01-07T00:04:49;84924.40;;;-0.40
69597;BMP180;70000;51.176;-115.568;2024-01-07T00:07:19;84917.00;;;-0.50
69597;BMP180;70000;51.176;-115.568;2024-01-07T00:09:55;84926.40;;;-0.50
69597;BMP180;70000;51.176;-115.568;2024-01-07T00:12:23;84934.80;;;-0.50
69597;BMP180;70000;51.176;-115.568;2024-01-07T00:14:55;84936.60;;;-0.54
69597;BMP180;70000;51.176;-115.568;2024-01-07T00:17:23;84939.20;;;-0.60
69597;BMP180;70000;51.176;-115.568;2024-01-07T00:19:53;84938.20;;;-0.60
69597;BMP180;70000;51.176;-115.568;2024-01-07T00:22:21;84948.00;;;-0.56
69597;BMP180;70000;51.176;-115.568;2024-01-07T00:24:50;84951.20;;;-0.50
69597;BMP180;70000;51.176;-115.568;2024-01-07T00:27:19;84957.60;;;-0.50
69597;BMP180;70000;51.176;-115.568;2024-01-07T00:29:48;84960.40;;;-0.50
69597;BMP180;70000;51.176;-115.568;2024-01-07T00:34:42;84962.40;;;-0.60
69597;BMP180;70000;51.176;-115.568;2024-01-07T00:40:36;84968.40;;;-0.60
69597;BMP180;70000;51.176;-115.568;2024-01-07T00:43:05;84973.00;;;-0.60
69597;BMP180;70000;51.176;-115.568;2024-01-07T00:45:36;84976.00;;;-0.60
69597;BMP180;70000;51.176;-115.568;2024-01-07T00:48:05;84983.40;;;-0.70
69597;BMP180;70000;51.176;-115.568;2024-01-07T00:53:01;84982.60;;;-0.70
69597;BMP180;70000;51.176;-115.568;2024-01-07T00:55:31;84986.00;;;-0.70
69597;BMP180;70000;51.176;-115.568;2024-01-07T00:58:01;84980.80;;;-0.80
69597;BMP180;70000;51.176;-115.568;2024-01-07T01:00:31;84988.00;;;-0.80
69597;BMP180;70000;51.176;-115.568;2024-01-07T01:06:24;85001.20;;;-0.88
69597;BMP180;70000;51.176;-115.568;2024-01-07T01:08:54;85000.00;;;-0.90
69597;BMP180;70000;51.176;-115.568;2024-01-07T01:11:24;85001.40;;;-0.90
69597;BMP180;70000;51.176;-115.568;2024-01-07T01:13:55;85003.80;;;-0.92
69597;BMP180;70000;51.176;-115.568;2024-01-07T01:16:25;85007.40;;;-0.92
69597;BMP180;70000;51.176;-115.568;2024-01-07T01:18:56;85008.80;;;-1.00
69597;BMP180;70000;51.176;-115.568;2024-01-07T01:21:28;85011.80;;;-1.10
69597;BMP180;70000;51.176;-115.568;2024-01-07T01:24:02;85011.20;;;-1.10
69597;BMP180;70000;51.176;-115.568;2024-01-07T01:26:31;85022.40;;;-1.16
69597;BMP180;70000;51.176;-115.568;2024-01-07T01:29:03;85023.80;;;-1.18
69597;BMP180;70000;51.176;-115.568;2024-01-07T01:31:33;85032.80;;;-1.20
69597;BMP180;70000;51.176;-115.568;2024-01-07T01:34:06;85029.40;;;-1.20
69597;BMP180;70000;51.176;-115.568;2024-01-07T01:36:37;85029.40;;;-1.20
69597;BMP180;70000;51.176;-115.568;2024-01-07T01:39:07;85035.20;;;-1.20
69597;BMP180;70000;51.176;-115.568;2024-01-07T01:41:38;85039.40;;;-1.20
69597;BMP180;70000;51.176;-115.568;2024-01-07T01:44:12;85037.80;;;-1.20
69597;BMP180;70000;51.176;-115.568;2024-01-07T01:46:42;85046.20;;;-1.30
69597;BMP180;70000;51.176;-115.568;2024-01-07T01:49:14;85049.00;;;-1.24
69597;BMP180;70000;51.176;-115.568;2024-01-07T01:51:45;85054.60;;;-1.20
69597;BMP180;70000;51.176;-115.568;2024-01-07T01:57:34;85057.00;;;-1.20
69597;BMP180;70000;51.176;-115.568;2024-01-07T02:00:06;85056.40;;;-1.20
69597;BMP180;70000;51.176;-115.568;2024-01-07T02:02:37;85058.60;;;-1.20
69597;BMP180;70000;51.176;-115.568;2024-01-07T02:05:06;85058.00;;;-1.22
69597;BMP180;70000;51.176;-115.568;2024-01-07T02:07:36;85062.60;;;-1.20
69597;BMP180;70000;51.176;-115.568;2024-01-07T02:10:05;85065.60;;;-1.20
69597;BMP180;70000;51.176;-115.568;2024-01-07T02:12:35;85061.40;;;-1.26
69597;BMP180;70000;51.176;-115.568;2024-01-07T02:15:05;85070.00;;;-1.20
69597;BMP180;70000;51.176;-115.568;2024-01-07T02:17:34;85070.60;;;-1.20
69597;BMP180;70000;51.176;-115.568;2024-01-07T02:20:04;85073.80;;;-1.20
69597;BMP180;70000;51.176;-115.568;2024-01-07T02:22:35;85076.00;;;-1.20
69597;BMP180;70000;51.176;-115.568;2024-01-07T02:25:04;85071.20;;;-1.20
69597;BMP180;70000;51.176;-115.568;2024-01-07T02:27:34;85071.40;;;-1.20
69597;BMP180;70000;51.176;-115.568;2024-01-07T02:30:04;85075.40;;;-1.20
69597;BMP180;70000;51.176;-115.568;2024-01-07T02:32:33;85076.80;;;-1.20
69597;BMP180;70000;51.176;-115.568;2024-01-07T02:35:06;85077.00;;;-1.22
69597;BMP180;70000;51.176;-115.568;2024-01-07T02:37:35;85086.20;;;-1.22
69597;BMP180;70000;51.176;-115.568;2024-01-07T02:40:05;85083.80;;;-1.30
69597;BMP180;70000;51.176;-115.568;2024-01-07T02:42:34;85088.80;;;-1.30
69597;BMP180;70000;51.176;-115.568;2024-01-07T02:45:07;85088.20;;;-1.30
69597;BMP180;70000;51.176;-115.568;2024-01-07T02:47:35;85089.20;;;-1.30
69597;BMP180;70000;51.176;-115.568;2024-01-07T02:50:05;85092.60;;;-1.30
69597;BMP180;70000;51.176;-115.568;2024-01-07T02:52:34;85099.20;;;-1.30
69597;BMP180;70000;51.176;-115.568;2024-01-07T02:55:03;85095.20;;;-1.30
69597;BMP180;70000;51.176;-115.568;2024-01-07T02:57:33;85092.60;;;-1.26
69597;BMP180;70000;51.176;-115.568;2024-01-07T03:00:03;85098.20;;;-1.24
69597;BMP180;70000;51.176;-115.568;2024-01-07T03:02:33;85103.20;;;-1.28
69597;BMP180;70000;51.176;-115.568;2024-01-07T03:05:03;85101.00;;;-1.30
69597;BMP180;70000;51.176;-115.568;2024-01-07T03:07:32;85107.20;;;-1.30
69597;BMP180;70000;51.176;-115.568;2024-01-07T03:10:01;85106.40;;;-1.30
69597;BMP180;70000;51.176;-115.568;2024-01-07T03:12:33;85107.20;;;-1.30
69597;BMP180;70000;51.176;-115.568;2024-01-07T03:15:03;85105.40;;;-1.30
69597;BMP180;70000;51.176;-115.568;2024-01-07T03:17:34;85106.00;;;-1.30
69597;BMP180;70000;51.176;-115.568;2024-01-07T03:20:05;85110.20;;;-1.32
69597;BMP180;70000;51.176;-115.568;2024-01-07T03:22:34;85117.20;;;-1.30
69597;BMP180;70000;51.176;-115.568;2024-01-07T03:25:06;85121.40;;;-1.40
69597;BMP180;70000;51.176;-115.568;2024-01-07T03:27:36;85123.80;;;-1.40
69597;BMP180;70000;51.176;-115.568;2024-01-07T03:30:06;85123.60;;;-1.40
69597;BMP180;70000;51.176;-115.568;2024-01-07T03:32:34;85127.40;;;-1.40
69597;BMP180;70000;51.176;-115.568;2024-01-07T03:35:04;85140.80;;;-1.42
69597;BMP180;70000;51.176;-115.568;2024-01-07T03:37:34;85143.60;;;-1.50
69597;BMP180;70000;51.176;-115.568;2024-01-07T03:40:03;85148.20;;;-1.50
69597;BMP180;70000;51.176;-115.568;2024-01-07T03:42:38;85152.20;;;-1.60
69597;BMP180;70000;51.176;-115.568;2024-01-07T03:45:08;85161.40;;;-1.60
69597;BMP180;70000;51.176;-115.568;2024-01-07T03:47:38;85166.60;;;-1.70
69597;BMP180;70000;51.176;-115.568;2024-01-07T03:50:08;85167.60;;;-1.80
69597;BMP180;70000;51.176;-115.568;2024-01-07T03:52:37;85182.80;;;-1.80
69597;BMP180;70000;51.176;-115.568;2024-01-07T03:55:07;85177.00;;;-1.80
69597;BMP180;70000;51.176;-115.568;2024-01-07T03:57:36;85188.60;;;-1.80
69597;BMP180;70000;51.176;-115.568;2024-01-07T04:00:06;85187.60;;;-1.86
69597;BMP180;70000;51.176;-115.568;2024-01-07T04:02:57;85191.20;;;-1.90
69597;BMP180;70000;51.176;-115.568;2024-01-07T04:05:27;85187.60;;;-1.90
69597;BMP180;70000;51.176;-115.568;2024-01-07T04:08:01;85196.80;;;-2.00
69597;BMP180;70000;51.176;-115.568;2024-01-07T04:10:30;85210.60;;;-2.00
69597;BMP180;70000;51.176;-115.568;2024-01-07T04:13:00;85207.80;;;-2.10
69597;BMP180;70000;51.176;-115.568;2024-01-07T04:15:29;85209.40;;;-2.10
69597;BMP180;70000;51.176;-115.568;2024-01-07T04:18:04;85208.80;;;-2.10
69597;BMP180;70000;51.176;-115.568;2024-01-07T04:20:34;85218.60;;;-2.20
69597;BMP180;70000;51.176;-115.568;2024-01-07T04:23:04;85225.20;;;-2.22
69597;BMP180;70000;51.176;-115.568;2024-01-07T04:25:33;85231.40;;;-2.30
69597;BMP180;70000;51.176;-115.568;2024-01-07T04:28:04;85229.00;;;-2.30
69597;BMP180;70000;51.176;-115.568;2024-01-07T04:30:33;85233.60;;;-2.30
69597;BMP180;70000;51.176;-115.568;2024-01-07T04:33:04;85230.00;;;-2.30
69597;BMP180;70000;51.176;-115.568;2024-01-07T04:35:33;85243.20;;;-2.30
69597;BMP180;70000;51.176;-115.568;2024-01-07T04:38:02;85253.60;;;-2.30
69597;BMP180;70000;51.176;-115.568;2024-01-07T04:40:32;85254.80;;;-2.30
69597;BMP180;70000;51.176;-115.568;2024-01-07T04:43:02;85260.60;;;-2.30
69597;BMP180;70000;51.176;-115.568;2024-01-07T04:45:34;85256.80;;;-2.30
69597;BMP180;70000;51.176;-115.568;2024-01-07T04:48:03;85256.40;;;-2.30
69597;BMP180;70000;51.176;-115.568;2024-01-07T04:50:32;85258.60;;;-2.30
69597;BMP180;70000;51.176;-115.568;2024-01-07T04:53:02;85268.80;;;-2.30
69597;BMP180;70000;51.176;-115.568;2024-01-07T04:55:32;85269.00;;;-2.30
69597;BMP180;70000;51.176;-115.568;2024-01-07T04:58:01;85268.00;;;-2.30
69597;BMP180;70000;51.176;-115.568;2024-01-07T05:00:31;85274.20;;;-2.34
69597;BMP180;70000;51.176;-115.568;2024-01-07T05:03:01;85279.40;;;-2.40
69597;BMP180;70000;51.176;-115.568;2024-01-07T05:05:31;85283.40;;;-2.40
69597;BMP180;70000;51.176;-115.568;2024-01-07T05:08:00;85284.20;;;-2.40
69597;BMP180;70000;51.176;-115.568;2024-01-07T05:10:31;85285.20;;;-2.40
69597;BMP180;70000;51.176;-115.568;2024-01-07T05:13:00;85283.80;;;-2.40
69597;BMP180;70000;51.176;-115.568;2024-01-07T05:18:53;85295.20;;;-2.40
69597;BMP180;70000;51.176;-115.568;2024-01-07T05:21:23;85298.20;;;-2.40
69597;BMP180;70000;51.176;-115.568;2024-01-07T05:23:53;85301.80;;;-2.40
69597;BMP180;70000;51.176;-115.568;2024-01-07T05:26:27;85303.40;;;-2.40
69597;BMP180;70000;51.176;-115.568;2024-01-07T05:28:57;85307.60;;;-2.50
69597;BMP180;70000;51.176;-115.568;2024-01-07T05:31:32;85306.60;;;-2.50
69597;BMP180;70000;51.176;-115.568;2024-01-07T05:34:07;85312.20;;;-2.50
69597;BMP180;70000;51.176;-115.568;2024-01-07T05:36:41;85313.80;;;-2.56
69597;BMP180;70000;51.176;-115.568;2024-01-07T05:39:20;85317.40;;;-2.52
69597;BMP180;70000;51.176;-115.568;2024-01-07T05:41:52;85321.00;;;-2.50
69597;BMP180;70000;51.176;-115.568;2024-01-07T05:44:21;85318.00;;;-2.50
69597;BMP180;70000;51.176;-115.568;2024-01-07T05:46:52;85324.80;;;-2.60
69597;BMP180;70000;51.176;-115.568;2024-01-07T05:49:21;85328.20;;;-2.60
69597;BMP180;70000;51.176;-115.568;2024-01-07T05:51:51;85322.80;;;-2.60
69597;BMP180;70000;51.176;-115.568;2024-01-07T05:54:20;85326.80;;;-2.66
69597;BMP180;70000;51.176;-115.568;2024-01-07T05:56:51;85331.40;;;-2.62
69597;BMP180;70000;51.176;-115.568;2024-01-07T05:59:21;85338.00;;;-2.64
69597;BMP180;70000;51.176;-115.568;2024-01-07T06:01:51;85343.40;;;-2.66
69597;BMP180;70000;51.176;-115.568;2024-01-07T06:07:49;85360.00;;;-2.70
69597;BMP180;70000;51.176;-115.568;2024-01-07T06:10:18;85359.80;;;-2.70
69597;BMP180;70000;51.176;-115.568;2024-01-07T06:12:48;85362.20;;;-2.70
69597;BMP180;70000;51.176;-115.568;2024-01-07T06:15:17;85368.40;;;-2.70
69597;BMP180;70000;51.176;-115.568;2024-01-07T06:17:45;85368.80;;;-2.70
69597;BMP180;70000;51.176;-115.568;2024-01-07T06:20:14;85373.00;;;-2.70
69597;BMP180;70000;51.176;-115.568;2024-01-07T06:22:43;85375.60;;;-2.70
69597;BMP180;70000;51.176;-115.568;2024-01-07T06:25:11;85376.40;;;-2.74
69597;BMP180;70000;51.176;-115.568;2024-01-07T06:27:40;85376.80;;;-2.70
69597;BMP180;70000;51.176;-115.568;2024-01-07T06:30:13;85380.20;;;-2.70
69597;BMP180;70000;51.176;-115.568;2024-01-07T06:32:42;85380.60;;;-2.70
69597;BMP180;70000;51.176;-115.568;2024-01-07T06:35:14;85383.60;;;-2.70
69597;BMP180;70000;51.176;-115.568;2024-01-07T06:37:43;85385.80;;;-2.70
69597;BMP180;70000;51.176;-115.568;2024-01-07T06:40:11;85391.60;;;-2.70
69597;BMP180;70000;51.176;-115.568;2024-01-07T06:42:40;85386.00;;;-2.70
69597;BMP180;70000;51.176;-115.568;2024-01-07T06:45:09;85393.60;;;-2.72
69597;BMP180;70000;51.176;-115.568;2024-01-07T06:47:37;85397.80;;;-2.80
69597;BMP180;70000;51.176;-115.568;2024-01-07T06:50:10;85403.20;;;-2.80
69597;BMP180;70000;51.176;-115.568;2024-01-07T06:52:39;85402.20;;;-2.80
69597;BMP180;70000;51.176;-115.568;2024-01-07T06:55:08;85403.20;;;-2.90
69597;BMP180;70000;51.176;-115.568;2024-01-07T06:57:36;85405.00;;;-2.90
69597;BMP180;70000;51.176;-115.568;2024-01-07T07:00:06;85406.60;;;-2.90
69597;BMP180;70000;51.176;-115.568;2024-01-07T07:02:35;85406.00;;;-2.94
69597;BMP180;70000;51.176;-115.568;2024-01-07T07:05:09;85411.60;;;-3.00
69597;BMP180;70000;51.176;-115.568;2024-01-07T07:07:37;85407.80;;;-3.00
69597;BMP180;70000;51.176;-115.568;2024-01-07T07:10:07;85414.40;;;-3.00
69597;BMP180;70000;51.176;-115.568;2024-01-07T07:12:35;85411.20;;;-3.00
69597;BMP180;70000;51.176;-115.568;2024-01-07T07:15:04;85417.40;;;-3.00
69597;BMP180;70000;51.176;-115.568;2024-01-07T07:17:32;85413.20;;;-3.08
69597;BMP180;70000;51.176;-115.568;2024-01-07T07:20:00;85420.80;;;-3.10
69597;BMP180;70000;51.176;-115.568;2024-01-07T07:22:29;85420.60;;;-3.16
69597;BMP180;70000;51.176;-115.568;2024-01-07T07:24:57;85426.40;;;-3.20
69597;BMP180;70000;51.176;-115.568;2024-01-07T07:27:29;85440.80;;;-3.20
69597;BMP180;70000;51.176;-115.568;2024-01-07T07:30:00;85440.20;;;-3.20
69597;BMP180;70000;51.176;-115.568;2024-01-07T07:32:29;85445.40;;;-3.30
69597;BMP180;70000;51.176;-115.568;2024-01-07T07:34:57;85450.20;;;-3.30
69597;BMP180;70000;51.176;-115.568;2024-01-07T07:37:25;85451.60;;;-3.30
69597;BMP180;70000;51.176;-115.568;2024-01-07T07:39:54;85450.80;;;-3.40
69597;BMP180;70000;51.176;-115.568;2024-01-07T07:42:22;85451.80;;;-3.48
69597;BMP180;70000;51.176;-115.568;2024-01-07T07:44:50;85446.60;;;-3.52
69597;BMP180;70000;51.176;-115.568;2024-01-07T07:47:19;85448.80;;;-3.60
69597;BMP180;70000;51.176;-115.568;2024-01-07T07:49:48;85450.20;;;-3.70
69597;BMP180;70000;51.176;-115.568;2024-01-07T07:52:18;85454.00;;;-3.74
69597;BMP180;70000;51.176;-115.568;2024-01-07T07:54:49;85453.40;;;-3.80
69597;BMP180;70000;51.176;-115.568;2024-01-07T07:57:18;85451.60;;;-3.90
69597;BMP180;70000;51.176;-115.568;2024-01-07T07:59:51;85458.40;;;-4.00
69597;BMP180;70000;51.176;-115.568;2024-01-07T08:02:21;85464.80;;;-4.00
69597;BMP180;70000;51.176;-115.568;2024-01-07T08:04:49;85466.60;;;-4.10
69597;BMP180;70000;51.176;-115.568;2024-01-07T08:07:18;85468.40;;;-4.10
69597;BMP180;70000;51.176;-115.568;2024-01-07T08:09:46;85472.20;;;-4.20
69597;BMP180;70000;51.176;-115.568;2024-01-07T08:12:14;85474.40;;;-4.30
69597;BMP180;70000;51.176;-115.568;2024-01-07T08:14:43;85464.80;;;-4.30
69597;BMP180;70000;51.176;-115.568;2024-01-07T08:17:11;85476.40;;;-4.40
69597;BMP180;70000;51.176;-115.568;2024-01-07T08:19:39;85476.40;;;-4.40
69597;BMP180;70000;51.176;-115.568;2024-01-07T08:22:08;85476.20;;;-4.50
69597;BMP180;70000;51.176;-115.568;2024-01-07T08:24:40;85478.40;;;-4.50
69597;BMP180;70000;51.176;-115.568;2024-01-07T08:30:14;85491.60;;;-4.60
69597;BMP180;70000;51.176;-115.568;2024-01-07T08:32:43;85485.40;;;-4.60
69597;BMP180;70000;51.176;-115.568;2024-01-07T08:35:12;85490.60;;;-4.70
69597;BMP180;70000;51.176;-115.568;2024-01-07T08:37:44;85496.60;;;-4.80
69597;BMP180;70000;51.176;-115.568;2024-01-07T08:40:14;85495.80;;;-4.80
69597;BMP180;70000;51.176;-115.568;2024-01-07T08:42:43;85498.20;;;-4.90
69597;BMP180;70000;51.176;-115.568;2024-01-07T08:45:13;85499.20;;;-4.90
69597;BMP180;70000;51.176;-115.568;2024-01-07T08:47:42;85508.40;;;-4.90
69597;BMP180;70000;51.176;-115.568;2024-01-07T08:50:12;85519.40;;;-5.00
69597;BMP180;70000;51.176;-115.568;2024-01-07T08:52:41;85514.60;;;-5.00
69597;BMP180;70000;51.176;-115.568;2024-01-07T08:55:10;85513.40;;;-5.00
69597;BMP180;70000;51.176;-115.568;2024-01-07T08:57:39;85507.60;;;-5.10
69597;BMP180;70000;51.176;-115.568;2024-01-07T09:00:09;85511.00;;;-5.20
69597;BMP180;70000;51.176;-115.568;2024-01-07T09:02:38;85514.40;;;-5.28
69597;BMP180;70000;51.176;-115.568;2024-01-07T09:05:11;85519.20;;;-5.30
69597;BMP180;70000;51.176;-115.568;2024-01-07T09:07:43;85514.60;;;-5.40
69597;BMP180;70000;51.176;-115.568;2024-01-07T09:10:12;85522.00;;;-5.40
69597;BMP180;70000;51.176;-115.568;2024-01-07T09:12:42;85516.80;;;-5.50
69597;BMP180;70000;51.176;-115.568;2024-01-07T09:15:11;85525.00;;;-5.50
69597;BMP180;70000;51.176;-115.568;2024-01-07T09:17:40;85526.80;;;-5.58
69597;BMP180;70000;51.176;-115.568;2024-01-07T09:20:10;85530.20;;;-5.60
69597;BMP180;70000;51.176;-115.568;2024-01-07T09:22:39;85538.60;;;-5.66
69597;BMP180;70000;51.176;-115.568;2024-01-07T09:25:09;85542.80;;;-5.70
69597;BMP180;70000;51.176;-115.568;2024-01-07T09:27:39;85540.20;;;-5.80
69597;BMP180;70000;51.176;-115.568;2024-01-07T09:30:11;85537.20;;;-5.88
69597;BMP180;70000;51.176;-115.568;2024-01-07T09:35:13;85555.00;;;-6.00
69597;BMP180;70000;51.176;-115.568;2024-01-07T09:37:43;85558.20;;;-6.00
69597;BMP180;70000;51.176;-115.568;2024-01-07T09:40:12;85561.40;;;-6.00
69597;BMP180;70000;51.176;-115.568;2024-01-07T09:42:47;85569.80;;;-6.10
69597;BMP180;70000;51.176;-115.568;2024-01-07T09:45:18;85567.40;;;-6.10
69597;BMP180;70000;51.176;-115.568;2024-01-07T09:47:47;85573.80;;;-6.20
69597;BMP180;70000;51.176;-115.568;2024-01-07T09:50:17;85574.20;;;-6.20
69597;BMP180;70000;51.176;-115.568;2024-01-07T09:52:47;85572.60;;;-6.22
69597;BMP180;70000;51.176;-115.568;2024-01-07T09:55:36;85572.00;;;-6.30
69597;BMP180;70000;51.176;-115.568;2024-01-07T09:58:06;85578.00;;;-6.30
69597;BMP180;70000;51.176;-115.568;2024-01-07T10:00:37;85578.00;;;-6.38
69597;BMP180;70000;51.176;-115.568;2024-01-07T10:03:06;85587.20;;;-6.40
69597;BMP180;70000;51.176;-115.568;2024-01-07T10:05:35;85585.60;;;-6.50
69597;BMP180;70000;51.176;-115.568;2024-01-07T10:08:05;85590.00;;;-6.50
69597;BMP180;70000;51.176;-115.568;2024-01-07T10:10:36;85591.80;;;-6.50
69597;BMP180;70000;51.176;-115.568;2024-01-07T10:13:06;85594.00;;;-6.50
69597;BMP180;70000;51.176;-115.568;2024-01-07T10:15:36;85594.80;;;-6.60
69597;BMP180;70000;51.176;-115.568;2024-01-07T10:18:07;85594.20;;;-6.62
69597;BMP180;70000;51.176;-115.568;2024-01-07T10:20:36;85599.40;;;-6.66
69597;BMP180;70000;51.176;-115.568;2024-01-07T10:23:10;85604.80;;;-6.70
69597;BMP180;70000;51.176;-115.568;2024-01-07T10:25:40;85609.80;;;-6.70
69597;BMP180;70000;51.176;-115.568;2024-01-07T10:28:11;85608.20;;;-6.70
69597;BMP180;70000;51.176;-115.568;2024-01-07T10:30:49;85612.40;;;-6.70
69597;BMP180;70000;51.176;-115.568;2024-01-07T10:33:23;85613.80;;;-6.70
69597;BMP180;70000;51.176;-115.568;2024-01-07T10:36:02;85620.60;;;-6.70
69597;BMP180;70000;51.176;-115.568;2024-01-07T10:38:33;85620.00;;;-6.70
69597;BMP180;70000;51.176;-115.568;2024-01-07T10:41:05;85628.00;;;-6.70
69597;BMP180;70000;51.176;-115.568;2024-01-07T10:43:39;85627.80;;;-6.70
69597;BMP180;70000;51.176;-115.568;2024-01-07T10:46:12;85629.60;;;-6.70
69597;BMP180;70000;51.176;-115.568;2024-01-07T10:49:19;85632.20;;;-6.70
69597;BMP180;70000;51.176;-115.568;2024-01-07T10:52:04;85638.60;;;-6.70
69597;BMP180;70000;51.176;-115.568;2024-01-07T10:54:35;85641.40;;;-6.70
69597;BMP180;70000;51.176;-115.568;2024-01-07T11:00:08;85644.40;;;-6.70
69597;BMP180;70000;51.176;-115.568;2024-01-07T11:02:59;85643.40;;;-6.70
69597;BMP180;70000;51.176;-115.568;2024-01-07T11:06:03;85641.00;;;-6.72
69597;BMP180;70000;51.176;-115.568;2024-01-07T11:08:52;85645.60;;;-6.80
69597;BMP180;70000;51.176;-115.568;2024-01-07T11:11:27;85645.20;;;-6.80
69597;BMP180;70000;51.176;-115.568;2024-01-07T11:14:02;85645.40;;;-6.80
69597;BMP180;70000;51.176;-115.568;2024-01-07T11:16:42;85650.20;;;-6.90
69597;BMP180;70000;51.176;-115.568;2024-01-07T11:19:15;85651.40;;;-6.90
69597;BMP180;70000;51.176;-115.568;2024-01-07T11:24:54;85654.20;;;-6.90
69597;BMP180;70000;51.176;-115.568;2024-01-07T11:27:30;85654.20;;;-6.90
69597;BMP180;70000;51.176;-115.568;2024-01-07T11:30:07;85655.40;;;-6.90
69597;BMP180;70000;51.176;-115.568;2024-01-07T11:32:39;85654.20;;;-6.90
69597;BMP180;70000;51.176;-115.568;2024-01-07T11:35:09;85653.60;;;-6.92
69597;BMP180;70000;51.176;-115.568;2024-01-07T11:37:38;85662.80;;;-7.00
69597;BMP180;70000;51.176;-115.568;2024-01-07T11:42:51;85657.80;;;-7.00
69597;BMP180;70000;51.176;-115.568;2024-01-07T11:45:20;85653.60;;;-7.00
69597;BMP180;70000;51.176;-115.568;2024-01-07T11:47:50;85656.20;;;-7.00
69597;BMP180;70000;51.176;-115.568;2024-01-07T11:50:19;85658.00;;;-7.00
69597;BMP180;70000;51.176;-115.568;2024-01-07T11:52:49;85660.20;;;-7.00
69597;BMP180;70000;51.176;-115.568;2024-01-07T11:55:21;85663.20;;;-7.00
69597;BMP180;70000;51.176;-115.568;2024-01-07T11:57:55;85660.60;;;-7.00
69597;BMP180;70000;51.176;-115.568;2024-01-07T12:00:24;85654.20;;;-7.00
69597;BMP180;70000;51.176;-115.568;2024-01-07T12:02:58;85662.80;;;-7.00
69597;BMP180;70000;51.176;-115.568;2024-01-07T12:05:28;85661.80;;;-7.00
69597;BMP180;70000;51.176;-115.568;2024-01-07T12:07:57;85661.40;;;-7.00
69597;BMP180;70000;51.176;-115.568;2024-01-07T12:10:29;85667.80;;;-7.00
69597;BMP180;70000;51.176;-115.568;2024-01-07T12:12:58;85664.60;;;-6.94
69597;BMP180;70000;51.176;-115.568;2024-01-07T12:15:28;85665.80;;;-6.90
69597;BMP180;70000;51.176;-115.568;2024-01-07T12:17:59;85671.20;;;-6.90
69597;BMP180;70000;51.176;-115.568;2024-01-07T12:20:30;85672.40;;;-6.90
69597;BMP180;70000;51.176;-115.568;2024-01-07T12:23:09;85676.80;;;-6.90
69597;BMP180;70000;51.176;-115.568;2024-01-07T12:25:38;85678.80;;;-6.90
69597;BMP180;70000;51.176;-115.568;2024-01-07T12:28:07;85674.60;;;-6.84
69597;BMP180;70000;51.176;-115.568;2024-01-07T12:30:37;85676.00;;;-6.88
69597;BMP180;70000;51.176;-115.568;2024-01-07T12:33:07;85677.00;;;-6.90
69597;BMP180;70000;51.176;-115.568;2024-01-07T12:35:36;85677.80;;;-6.90
69597;BMP180;70000;51.176;-115.568;2024-01-07T12:38:05;85687.00;;;-6.90
69597;BMP180;70000;51.176;-115.568;2024-01-07T12:40:34;85688.40;;;-6.90
69597;BMP180;70000;51.176;-115.568;2024-01-07T12:43:03;85688.40;;;-6.90
69597;BMP180;70000;51.176;-115.568;2024-01-07T12:45:35;85688.00;;;-6.90
69597;BMP180;70000;51.176;-115.568;2024-01-07T12:48:04;85687.40;;;-6.90
69597;BMP180;70000;51.176;-115.568;2024-01-07T12:50:34;85694.20;;;-6.90
69597;BMP180;70000;51.176;-115.568;2024-01-07T12:53:03;85699.40;;;-6.94
69597;BMP180;70000;51.176;-115.568;2024-01-07T12:55:32;85701.40;;;-6.96
69597;BMP180;70000;51.176;-115.568;2024-01-07T12:58:01;85704.20;;;-7.00
69597;BMP180;70000;51.176;-115.568;2024-01-07T13:00:33;85703.80;;;-6.96
69597;BMP180;70000;51.176;-115.568;2024-01-07T13:03:03;85712.40;;;-7.00
69597;BMP180;70000;51.176;-115.568;2024-01-07T13:05:35;85709.40;;;-7.00
69597;BMP180;70000;51.176;-115.568;2024-01-07T13:08:05;85709.60;;;-7.00
69597;BMP180;70000;51.176;-115.568;2024-01-07T13:10:34;85715.40;;;-7.00
69597;BMP180;70000;51.176;-115.568;2024-01-07T13:13:03;85712.20;;;-7.00
69597;BMP180;70000;51.176;-115.568;2024-01-07T13:15:42;85710.20;;;-7.04
69597;BMP180;70000;51.176;-115.568;2024-01-07T13:18:13;85710.80;;;-7.04
69597;BMP180;70000;51.176;-115.568;2024-01-07T13:20:43;85710.80;;;-7.10
69597;BMP180;70000;51.176;-115.568;2024-01-07T13:23:12;85713.40;;;-7.10
69597;BMP180;70000;51.176;-115.568;2024-01-07T13:25:41;85720.60;;;-7.10
69597;BMP180;70000;51.176;-115.568;2024-01-07T13:28:10;85728.00;;;-7.10
69597;BMP180;70000;51.176;-115.568;2024-01-07T13:30:39;85733.60;;;-7.14
69597;BMP180;70000;51.176;-115.568;2024-01-07T13:33:09;85729.60;;;-7.10
69597;BMP180;70000;51.176;-115.568;2024-01-07T13:35:54;85726.20;;;-7.10
69597;BMP180;70000;51.176;-115.568;2024-01-07T13:38:22;85730.60;;;-7.10
69597;BMP180;70000;51.176;-115.568;2024-01-07T13:40:52;85729.00;;;-7.10
69597;BMP180;70000;51.176;-115.568;2024-01-07T13:43:23;85733.60;;;-7.10
69597;BMP180;70000;51.176;-115.568;2024-01-07T13:45:54;85730.60;;;-7.18
69597;BMP180;70000;51.176;-115.568;2024-01-07T13:48:26;85736.40;;;-7.20
69597;BMP180;70000;51.176;-115.568;2024-01-07T13:50:56;85736.40;;;-7.20
69597;BMP180;70000;51.176;-115.568;2024-01-07T13:53:26;85742.60;;;-7.30
69597;BMP180;70000;51.176;-115.568;2024-01-07T13:55:55;85744.60;;;-7.40
69597;BMP180;70000;51.176;-115.568;2024-01-07T13:58:25;85753.40;;;-7.40
69597;BMP180;70000;51.176;-115.568;2024-01-07T14:00:54;85755.00;;;-7.40
69597;BMP180;70000;51.176;-115.568;2024-01-07T14:03:23;85755.80;;;-7.40
69597;BMP180;70000;51.176;-115.568;2024-01-07T14:05:53;85758.00;;;-7.46
69597;BMP180;70000;51.176;-115.568;2024-01-07T14:08:22;85764.40;;;-7.50
69597;BMP180;70000;51.176;-115.568;2024-01-07T14:10:51;85765.00;;;-7.50
69597;BMP180;70000;51.176;-115.568;2024-01-07T14:13:20;85762.00;;;-7.60
69597;BMP180;70000;51.176;-115.568;2024-01-07T14:15:50;85767.80;;;-7.60
69597;BMP180;70000;51.176;-115.568;2024-01-07T14:18:21;85766.80;;;-7.62
69597;BMP180;70000;51.176;-115.568;2024-01-07T14:20:51;85759.60;;;-7.70
69597;BMP180;70000;51.176;-115.568;2024-01-07T14:23:19;85765.00;;;-7.70
69597;BMP180;70000;51.176;-115.568;2024-01-07T14:25:48;85763.60;;;-7.70
69597;BMP180;70000;51.176;-115.568;2024-01-07T14:28:17;85769.80;;;-7.70